Newberg, Oregon
Current Conditions -  °F | °C
As of 11:53 PM on Wednesday 17 Dec 2014 (Local Time) from KUAO Reporting Station
Overcast Overcast  
Wind Chill: 46°   Ceiling: 4200
Heat Index: 46°   Visibility: 10mi
Dew Point: 44°   Wind: 0mph
Humidity: 93%   Direction: NA
Pressure: 29.99"   Gusts: NA
Location:  45.3°N, 122.97°W
Report Text: KUAO 180753Z AUTO 00000KT 10SM BKN042 OVC050 08/07 A2999 RMK AO2 RAB0658E09 SLP156 P0001 T00780067 400940039
Loading
Personal Weather Stations






























Interactive Weather Map New forecast layout! Learn more

10-Day Weather Forecast

Advertisements
Track Severe Weather on mobile